createdAt,value
2018-01-14T00:00:42.293Z,98443.80
2018-01-14T00:03:09.926Z,98449.75
2018-01-14T00:05:37.591Z,98450.56
2018-01-14T00:08:05.236Z,98444.25
2018-01-14T00:10:32.832Z,98449.84
2018-01-14T00:13:00.593Z,98439.89
2018-01-14T00:15:28.205Z,98437.52
2018-01-14T00:17:55.846Z,98442.87
2018-01-14T00:20:23.452Z,98441.43
2018-01-14T00:22:51.145Z,98447.59
2018-01-14T00:25:18.797Z,98442.20
2018-01-14T00:27:46.432Z,98437.27
2018-01-14T00:30:14.073Z,98436.65
2018-01-14T00:32:41.773Z,98442.05
2018-01-14T00:35:09.490Z,98437.98
2018-01-14T00:37:37.123Z,98438.39
2018-01-14T00:40:04.791Z,98433.11
2018-01-14T00:42:32.547Z,98430.50
2018-01-14T00:45:00.315Z,98437.27
2018-01-14T00:47:28.011Z,98439.33
2018-01-14T00:49:55.648Z,98440.00
2018-01-14T00:52:23.403Z,98432.02
2018-01-14T00:54:51.086Z,98434.70
2018-01-14T00:57:18.733Z,98435.38
2018-01-14T00:59:46.521Z,98439.33
2018-01-14T01:02:14.162Z,98433.58
2018-01-14T01:04:41.797Z,98432.65
2018-01-14T01:07:09.427Z,98433.62
2018-01-14T01:09:37.045Z,98436.39
2018-01-14T01:12:04.717Z,98428.83
2018-01-14T01:14:32.343Z,98429.56
2018-01-14T01:16:59.994Z,98436.91
2018-01-14T01:19:27.637Z,98437.20
2018-01-14T01:21:55.263Z,98428.99
2018-01-14T01:24:22.903Z,98427.19
2018-01-14T01:26:50.548Z,98429.59
2018-01-14T01:29:18.173Z,98429.51
2018-01-14T01:31:45.827Z,98428.63
2018-01-14T01:34:13.512Z,98432.88
2018-01-14T01:36:41.330Z,98435.75
2018-01-14T01:39:09.038Z,98440.28
2018-01-14T01:41:36.829Z,98445.78
2018-01-14T01:44:04.559Z,98450.38
2018-01-14T01:46:32.188Z,98435.81
2018-01-14T01:48:59.796Z,98437.46
2018-01-14T01:51:27.531Z,98429.48
2018-01-14T01:53:55.165Z,98437.72
2018-01-14T01:56:22.807Z,98440.39
2018-01-14T01:58:50.477Z,98427.39
2018-01-14T02:01:18.072Z,98422.91
2018-01-14T02:03:45.696Z,98417.02
2018-01-14T02:06:13.443Z,98421.08
2018-01-14T02:08:41.048Z,98425.45
2018-01-14T02:11:08.665Z,98419.94
2018-01-14T02:13:36.295Z,98418.66
2018-01-14T02:16:03.981Z,98426.00
2018-01-14T02:18:31.607Z,98421.84
2018-01-14T02:20:59.211Z,98425.02
2018-01-14T02:23:26.981Z,98421.08
2018-01-14T02:25:54.588Z,98419.02
2018-01-14T02:28:22.218Z,98413.77
2018-01-14T02:30:49.830Z,98417.30
2018-01-14T02:33:17.452Z,98419.12
2018-01-14T02:35:45.350Z,98417.09
2018-01-14T02:38:12.951Z,98419.98
2018-01-14T02:40:40.566Z,98411.76
2018-01-14T02:43:08.215Z,98418.07
2018-01-14T02:45:36.041Z,98415.03
2018-01-14T02:48:03.707Z,98417.59
2018-01-14T02:50:31.336Z,98406.86
2018-01-14T02:52:59.021Z,98410.97
2018-01-14T02:55:26.713Z,98415.63
2018-01-14T02:57:54.340Z,98417.45
2018-01-14T03:00:21.945Z,98418.00
2018-01-14T03:02:49.590Z,98416.66
2018-01-14T03:05:17.270Z,98419.98
2018-01-14T03:07:45.040Z,98417.67
2018-01-14T03:10:12.651Z,98414.27
2018-01-14T03:12:40.275Z,98420.18
2018-01-14T03:15:07.928Z,98417.21
2018-01-14T03:17:35.536Z,98421.56
2018-01-14T03:20:03.170Z,98417.45
2018-01-14T03:22:30.839Z,98422.08
2018-01-14T03:24:58.612Z,98427.02
2018-01-14T03:27:26.257Z,98424.51
2018-01-14T03:29:53.881Z,98424.05
2018-01-14T03:32:21.512Z,98417.30
2018-01-14T03:34:49.190Z,98424.72
2018-01-14T03:37:16.937Z,98427.88
2018-01-14T03:39:44.575Z,98419.96
2018-01-14T03:42:12.230Z,98420.59
2018-01-14T03:44:39.861Z,98427.34
2018-01-14T03:47:07.476Z,98418.41
2018-01-14T03:49:35.237Z,98422.81
2018-01-14T03:52:02.887Z,98426.84
2018-01-14T03:54:30.520Z,98422.14
2018-01-14T03:56:58.170Z,98430.00
2018-01-14T03:59:25.792Z,98431.25
2018-01-14T04:01:53.508Z,98431.98
2018-01-14T04:04:21.122Z,98419.22
2018-01-14T04:06:48.747Z,98424.80
2018-01-14T04:09:16.476Z,98428.27
2018-01-14T04:11:44.103Z,98431.47
2018-01-14T04:14:11.725Z,98427.52
2018-01-14T04:16:39.306Z,98427.72
2018-01-14T04:19:06.905Z,98428.17
2018-01-14T04:21:34.531Z,98427.82
2018-01-14T04:24:02.148Z,98432.09
2018-01-14T04:26:29.757Z,98431.80
2018-01-14T04:28:57.457Z,98441.32
2018-01-14T04:31:25.095Z,98437.20
2018-01-14T04:33:52.726Z,98430.37
2018-01-14T04:36:20.407Z,98432.78
2018-01-14T04:38:48.048Z,98435.80
2018-01-14T04:41:15.700Z,98433.48
2018-01-14T04:43:43.379Z,98432.80
2018-01-14T04:46:11.186Z,98438.66
2018-01-14T04:48:38.806Z,98440.57
2018-01-14T04:51:06.446Z,98443.78
2018-01-14T04:53:34.068Z,98439.73
2018-01-14T04:56:01.727Z,98438.80
2018-01-14T04:58:29.465Z,98434.28
2018-01-14T05:00:57.156Z,98440.02
2018-01-14T05:03:25.048Z,98436.33
2018-01-14T05:05:52.784Z,98437.41
2018-01-14T05:08:20.391Z,98443.27
2018-01-14T05:10:48.073Z,98445.17
2018-01-14T05:13:15.777Z,98441.17
2018-01-14T05:15:43.492Z,98449.59
2018-01-14T05:18:11.077Z,98453.00
2018-01-14T05:20:38.852Z,98442.23
2018-01-14T05:23:06.512Z,98448.55
2018-01-14T05:25:34.157Z,98447.94
2018-01-14T05:28:01.776Z,98452.53
2018-01-14T05:30:29.391Z,98453.64
2018-01-14T05:32:57.187Z,98453.42
2018-01-14T05:35:24.796Z,98457.19
2018-01-14T05:37:52.456Z,98453.72
2018-01-14T05:40:20.072Z,98457.45
2018-01-14T05:42:47.786Z,98448.94
2018-01-14T05:45:15.567Z,98461.53
2018-01-14T05:47:43.216Z,98456.19
2018-01-14T05:50:10.873Z,98453.64
2018-01-14T05:52:38.646Z,98459.45
2018-01-14T05:55:06.300Z,98458.41
2018-01-14T05:57:34.172Z,98458.06
2018-01-14T06:00:01.800Z,98455.94
2018-01-14T06:02:29.446Z,98458.23
2018-01-14T06:04:57.068Z,98458.69
2018-01-14T06:07:24.663Z,98467.73
2018-01-14T06:09:52.296Z,98460.70
2018-01-14T06:12:19.921Z,98466.34
2018-01-14T06:14:47.563Z,98471.48
2018-01-14T06:17:15.213Z,98469.48
2018-01-14T06:19:43.068Z,98478.13
2018-01-14T06:22:10.661Z,98477.16
2018-01-14T06:24:38.272Z,98477.88
2018-01-14T06:27:06.032Z,98486.52
2018-01-14T06:29:33.648Z,98482.45
2018-01-14T06:32:01.263Z,98485.59
2018-01-14T06:34:28.883Z,98487.65
2018-01-14T06:36:56.506Z,98483.89
2018-01-14T06:39:24.112Z,98479.11
2018-01-14T06:41:51.728Z,98481.00
2018-01-14T06:44:19.522Z,98478.28
2018-01-14T06:46:47.162Z,98473.47
2018-01-14T06:49:14.848Z,98473.64
2018-01-14T06:51:42.455Z,98473.92
2018-01-14T06:54:10.103Z,98473.71
2018-01-14T06:56:38.181Z,98472.77
2018-01-14T06:59:05.921Z,98470.00
2018-01-14T07:01:33.532Z,98470.98
2018-01-14T07:04:01.131Z,98477.34
2018-01-14T07:06:29.054Z,98478.39
2018-01-14T07:08:56.682Z,98476.48
2018-01-14T07:11:24.332Z,98482.06
2018-01-14T07:13:51.957Z,98478.74
2018-01-14T07:16:19.566Z,98485.16
2018-01-14T07:18:47.202Z,98476.94
2018-01-14T07:21:14.846Z,98474.91
2018-01-14T07:23:42.531Z,98474.47
2018-01-14T07:26:10.152Z,98475.39
2018-01-14T07:28:37.767Z,98473.34
2018-01-14T07:31:05.458Z,98481.88
2018-01-14T07:33:33.068Z,98480.83
2018-01-14T07:36:00.734Z,98488.47
2018-01-14T07:38:28.521Z,98504.54
2018-01-14T07:40:56.161Z,98495.50
2018-01-14T07:43:23.782Z,98502.98
2018-01-14T07:45:51.443Z,98506.84
2018-01-14T07:48:19.253Z,98508.19
2018-01-14T07:50:46.911Z,98514.27
2018-01-14T07:53:14.658Z,98516.34
2018-01-14T07:55:42.312Z,98522.34
2018-01-14T07:58:09.951Z,98519.48
2018-01-14T08:00:37.655Z,98511.33
2018-01-14T08:03:05.424Z,98510.28
2018-01-14T08:05:33.243Z,98512.08
2018-01-14T08:08:01.006Z,98516.47
2018-01-14T08:10:28.627Z,98517.91
2018-01-14T08:12:56.330Z,98508.70
2018-01-14T08:15:23.982Z,98515.80
2018-01-14T08:17:51.654Z,98511.38
2018-01-14T08:20:19.288Z,98516.88
2018-01-14T08:22:46.954Z,98515.83
2018-01-14T08:25:14.588Z,98520.92
2018-01-14T08:27:42.244Z,98520.37
2018-01-14T08:30:09.938Z,98525.64
2018-01-14T08:32:37.572Z,98521.91
2018-01-14T08:35:05.194Z,98526.00
2018-01-14T08:37:32.827Z,98526.00
2018-01-14T08:40:00.474Z,98524.00
2018-01-14T08:42:28.128Z,98521.69
2018-01-14T08:44:55.888Z,98520.48
2018-01-14T08:47:23.547Z,98530.84
2018-01-14T08:49:51.173Z,98529.47
2018-01-14T08:52:18.806Z,98535.55
2018-01-14T08:54:46.464Z,98528.53
2018-01-14T08:57:14.144Z,98533.52
2018-01-14T08:59:41.853Z,98529.64
2018-01-14T09:02:09.482Z,98533.73
2018-01-14T09:04:37.088Z,98534.69
2018-01-14T09:07:05.602Z,98540.35
2018-01-14T09:09:33.249Z,98541.45
2018-01-14T09:12:01.127Z,98542.96
2018-01-14T09:14:28.757Z,98555.50
2018-01-14T09:16:56.402Z,98550.39
2018-01-14T09:19:24.112Z,98554.63
2018-01-14T09:21:51.827Z,98559.55
2018-01-14T09:24:19.463Z,98562.15
2018-01-14T09:26:47.098Z,98565.33
2018-01-14T09:29:14.867Z,98564.24
2018-01-14T09:31:42.533Z,98561.63
2018-01-14T09:34:10.265Z,98557.05
2018-01-14T09:36:37.927Z,98559.03
2018-01-14T09:39:05.613Z,98565.04
2018-01-14T09:41:33.336Z,98561.84
2018-01-14T09:44:00.987Z,98555.41
2018-01-14T09:46:28.712Z,98559.83
2018-01-14T09:48:56.346Z,98560.41
2018-01-14T09:51:24.007Z,98556.63
2018-01-14T09:53:51.642Z,98557.98
2018-01-14T09:56:19.263Z,98559.61
2018-01-14T09:58:46.996Z,98560.34
2018-01-14T10:01:14.635Z,98558.49
2018-01-14T10:03:42.298Z,98565.25
2018-01-14T10:06:10.068Z,98556.28
2018-01-14T10:08:37.806Z,98557.81
2018-01-14T10:11:05.434Z,98558.30
2018-01-14T10:13:33.073Z,98561.97
2018-01-14T10:16:00.738Z,98559.83
2018-01-14T10:18:28.385Z,98554.53
2018-01-14T10:20:56.022Z,98548.91
2018-01-14T10:23:23.624Z,98542.12
2018-01-14T10:25:51.275Z,98545.68
2018-01-14T10:28:18.929Z,98539.13
2018-01-14T10:30:46.982Z,98535.84
2018-01-14T10:33:14.688Z,98539.92
2018-01-14T10:35:42.455Z,98549.95
2018-01-14T10:38:10.181Z,98538.92
2018-01-14T10:40:37.822Z,98540.61
2018-01-14T10:43:05.483Z,98543.13
2018-01-14T10:45:33.213Z,98540.03
2018-01-14T10:48:00.850Z,98536.83
2018-01-14T10:50:28.614Z,98537.95
2018-01-14T10:52:56.409Z,98526.47
2018-01-14T10:55:24.100Z,98530.84
2018-01-14T10:57:51.776Z,98528.06
2018-01-14T11:00:19.426Z,98521.77
2018-01-14T11:02:47.063Z,98517.53
2018-01-14T11:05:15.005Z,98508.59
2018-01-14T11:07:42.652Z,98509.22
2018-01-14T11:10:10.324Z,98503.80
2018-01-14T11:12:37.957Z,98505.77
2018-01-14T11:15:05.613Z,98502.27
2018-01-14T11:17:33.268Z,98500.88
2018-01-14T11:20:00.897Z,98500.02
2018-01-14T11:22:28.538Z,98489.28
2018-01-14T11:24:56.173Z,98495.11
2018-01-14T11:27:23.839Z,98495.73
2018-01-14T11:30:08.703Z,98491.89
2018-01-14T11:32:36.413Z,98492.69
2018-01-14T11:35:04.053Z,98489.77
2018-01-14T11:37:31.705Z,98490.47
2018-01-14T11:39:59.354Z,98492.59
2018-01-14T11:42:26.975Z,98493.02
2018-01-14T11:44:54.775Z,98486.23
2018-01-14T11:47:22.453Z,98478.59
2018-01-14T11:49:50.217Z,98478.39
2018-01-14T11:52:18.054Z,98486.03
2018-01-14T11:54:45.873Z,98476.35
2018-01-14T11:57:13.509Z,98478.89
2018-01-14T11:59:41.122Z,98481.89
2018-01-14T12:02:08.760Z,98476.35
2018-01-14T12:04:36.392Z,98474.59
2018-01-14T12:07:04.048Z,98475.19
2018-01-14T12:09:31.672Z,98473.04
2018-01-14T12:11:59.377Z,98470.80
2018-01-14T12:14:27.050Z,98476.42
2018-01-14T12:16:54.906Z,98470.55
2018-01-14T12:19:22.584Z,98467.41
2018-01-14T12:21:50.264Z,98470.06
2018-01-14T12:24:17.995Z,98466.58
2018-01-14T12:26:45.704Z,98462.06
2018-01-14T12:29:13.450Z,98458.22
2018-01-14T12:31:41.091Z,98461.91
2018-01-14T12:37:18.755Z,98464.34
2018-01-14T12:39:46.418Z,98467.94
2018-01-14T12:42:14.107Z,98468.39
2018-01-14T12:44:41.755Z,98463.63
2018-01-14T12:47:09.509Z,98464.45
2018-01-14T12:49:37.220Z,98473.23
2018-01-14T12:52:05.048Z,98466.25
2018-01-14T12:54:32.798Z,98463.63
2018-01-14T12:57:00.498Z,98458.38
2018-01-14T12:59:28.176Z,98460.75
2018-01-14T13:01:55.954Z,98453.29
2018-01-14T13:04:23.694Z,98467.42
2018-01-14T13:06:51.588Z,98465.57
2018-01-14T13:09:19.244Z,98461.41
2018-01-14T13:11:47.041Z,98465.43
2018-01-14T13:14:14.710Z,98464.14
2018-01-14T13:16:42.342Z,98464.97
2018-01-14T13:19:09.988Z,98460.91
2018-01-14T13:21:37.707Z,98464.61
2018-01-14T13:24:05.409Z,98462.45
2018-01-14T13:26:33.158Z,98468.81
2018-01-14T13:29:00.881Z,98466.45
2018-01-14T13:31:28.603Z,98464.61
2018-01-14T13:33:56.242Z,98467.08
2018-01-14T13:36:23.884Z,98458.63
2018-01-14T13:38:51.538Z,98467.58
2018-01-14T13:41:19.295Z,98464.02
2018-01-14T13:43:46.952Z,98467.08
2018-01-14T13:46:14.718Z,98466.84
2018-01-14T13:48:42.376Z,98461.94
2018-01-14T13:51:10.157Z,98461.27
2018-01-14T13:53:37.814Z,98462.95
2018-01-14T13:56:05.485Z,98463.67
2018-01-14T13:58:33.113Z,98466.45
2018-01-14T14:01:00.775Z,98471.55
2018-01-14T14:03:28.553Z,98472.51
2018-01-14T14:05:56.195Z,98470.09
2018-01-14T14:08:23.875Z,98469.47
2018-01-14T14:10:51.793Z,98473.53
2018-01-14T14:13:19.509Z,98475.73
2018-01-14T14:15:47.922Z,98473.95
2018-01-14T14:18:15.558Z,98476.01
2018-01-14T14:20:43.215Z,98476.72
2018-01-14T14:23:10.873Z,98480.11
2018-01-14T14:25:38.495Z,98481.55
2018-01-14T14:28:06.106Z,98487.24
2018-01-14T14:30:33.910Z,98486.12
2018-01-14T14:33:01.549Z,98484.53
2018-01-14T14:35:29.213Z,98483.09
2018-01-14T14:37:56.880Z,98488.22
2018-01-14T14:40:24.655Z,98488.55
2018-01-14T14:42:52.406Z,98483.91
2018-01-14T14:45:20.074Z,98484.91
2018-01-14T14:47:47.711Z,98493.12
2018-01-14T14:50:15.464Z,98486.44
2018-01-14T14:52:43.095Z,98490.08
2018-01-14T14:55:10.884Z,98484.02
2018-01-14T14:57:38.529Z,98491.83
2018-01-14T15:00:06.207Z,98495.16
2018-01-14T15:02:34.078Z,98490.05
2018-01-14T15:05:01.736Z,98492.34
2018-01-14T15:07:29.421Z,98502.83
2018-01-14T15:09:57.210Z,98504.56
2018-01-14T15:12:24.886Z,98500.73
2018-01-14T15:14:52.566Z,98504.88
2018-01-14T15:17:20.228Z,98506.98
2018-01-14T15:19:47.896Z,98506.67
2018-01-14T15:22:15.579Z,98511.45
2018-01-14T15:24:43.353Z,98509.17
2018-01-14T15:27:11.075Z,98507.87
2018-01-14T15:29:38.732Z,98515.61
2018-01-14T15:32:06.736Z,98515.20
2018-01-14T15:34:34.802Z,98511.38
2018-01-14T15:37:02.719Z,98503.41
2018-01-14T15:39:30.433Z,98509.94
2018-01-14T15:41:58.203Z,98513.30
2018-01-14T15:44:25.844Z,98512.11
2018-01-14T15:46:53.623Z,98515.56
2018-01-14T15:49:21.329Z,98520.25
2018-01-14T15:51:49.040Z,98516.22
2018-01-14T15:54:16.672Z,98522.78
2018-01-14T15:56:44.409Z,98525.84
2018-01-14T15:59:12.078Z,98526.22
2018-01-14T16:01:39.803Z,98528.61
2018-01-14T16:04:07.608Z,98526.07
2018-01-14T16:06:35.273Z,98524.34
2018-01-14T16:09:03.099Z,98533.27
2018-01-14T16:11:30.759Z,98534.09
2018-01-14T16:13:58.505Z,98539.87
2018-01-14T16:16:26.381Z,98530.98
2018-01-14T16:18:54.117Z,98534.58
2018-01-14T16:21:21.810Z,98534.97
2018-01-14T16:23:49.630Z,98529.48
2018-01-14T16:26:17.285Z,98531.83
2018-01-14T16:28:45.049Z,98523.47
2018-01-14T16:31:12.715Z,98531.78
2018-01-14T16:33:40.460Z,98531.26
2018-01-14T16:36:08.125Z,98530.44
2018-01-14T16:38:36.071Z,98531.59
2018-01-14T16:41:03.748Z,98529.13
2018-01-14T16:43:31.389Z,98527.44
2018-01-14T16:45:59.044Z,98532.27
2018-01-14T16:48:26.806Z,98526.11
2018-01-14T16:50:54.501Z,98541.72
2018-01-14T16:53:22.164Z,98541.39
2018-01-14T16:55:49.815Z,98539.75
2018-01-14T16:58:17.440Z,98539.99
2018-01-14T17:00:45.080Z,98539.95
2018-01-14T17:03:12.974Z,98539.64
2018-01-14T17:05:40.624Z,98544.92
2018-01-14T17:08:08.309Z,98544.84
2018-01-14T17:10:35.980Z,98544.81
2018-01-14T17:13:03.723Z,98543.53
2018-01-14T17:15:31.368Z,98543.92
2018-01-14T17:17:59.041Z,98542.20
2018-01-14T17:20:26.758Z,98546.05
2018-01-14T17:22:54.630Z,98542.22
2018-01-14T17:25:22.269Z,98549.53
2018-01-14T17:27:49.983Z,98546.16
2018-01-14T17:30:17.695Z,98547.92
2018-01-14T17:32:45.537Z,98540.03
2018-01-14T17:35:13.165Z,98547.48
2018-01-14T17:37:40.826Z,98549.73
2018-01-14T17:40:08.499Z,98550.89
2018-01-14T17:42:36.110Z,98550.72
2018-01-14T17:45:03.830Z,98557.68
2018-01-14T17:47:31.485Z,98557.57
2018-01-14T17:49:59.143Z,98548.11
2018-01-14T17:52:26.851Z,98547.67
2018-01-14T17:54:54.493Z,98557.80
2018-01-14T17:57:22.127Z,98551.70
2018-01-14T17:59:49.771Z,98551.88
2018-01-14T18:02:17.375Z,98547.56
2018-01-14T18:04:45.288Z,98559.11
2018-01-14T18:07:12.914Z,98550.69
2018-01-14T18:09:40.599Z,98565.84
2018-01-14T18:12:08.219Z,98564.75
2018-01-14T18:14:35.845Z,98569.26
2018-01-14T18:17:03.469Z,98564.45
2018-01-14T18:19:31.114Z,98568.83
2018-01-14T18:21:58.777Z,98567.73
2018-01-14T18:24:26.476Z,98569.55
2018-01-14T18:26:54.227Z,98569.89
2018-01-14T18:29:21.856Z,98566.59
2018-01-14T18:31:49.509Z,98564.81
2018-01-14T18:34:17.230Z,98571.44
2018-01-14T18:36:44.940Z,98573.67
2018-01-14T18:39:12.575Z,98576.20
2018-01-14T18:41:40.207Z,98581.42
2018-01-14T18:44:07.931Z,98576.13
2018-01-14T18:46:35.563Z,98571.70
2018-01-14T18:49:03.318Z,98572.23
2018-01-14T18:51:31.059Z,98573.88
2018-01-14T18:53:58.823Z,98573.80
2018-01-14T18:56:26.529Z,98585.19
2018-01-14T18:58:54.473Z,98589.44
2018-01-14T19:01:22.310Z,98581.67
2018-01-14T19:03:50.010Z,98581.97
2018-01-14T19:06:17.809Z,98582.48
2018-01-14T19:08:45.473Z,98578.22
2018-01-14T19:11:13.456Z,98581.76
2018-01-14T19:13:41.221Z,98577.91
2018-01-14T19:16:09.114Z,98574.16
2018-01-14T19:18:37.079Z,98576.70
2018-01-14T19:21:05.154Z,98574.47
2018-01-14T19:23:33.128Z,98572.79
2018-01-14T19:26:01.189Z,98574.38
2018-01-14T19:28:28.973Z,98567.67
2018-01-14T19:30:56.934Z,98575.51
2018-01-14T19:33:24.851Z,98576.73
2018-01-14T19:35:52.865Z,98585.98
2018-01-14T19:38:20.835Z,98587.22
2018-01-14T19:40:48.739Z,98587.82
2018-01-14T19:43:16.665Z,98583.33
2018-01-14T19:45:44.804Z,98586.41
2018-01-14T19:48:12.811Z,98592.05
2018-01-14T19:50:40.785Z,98591.06
2018-01-14T19:53:08.951Z,98589.75
2018-01-14T19:55:37.229Z,98586.28
2018-01-14T19:58:05.400Z,98588.12
2018-01-14T20:00:33.372Z,98590.46
2018-01-14T20:03:01.339Z,98596.05
2018-01-14T20:05:29.322Z,98600.03
2018-01-14T20:07:57.508Z,98597.09
2018-01-14T20:10:25.919Z,98602.41
2018-01-14T20:12:54.194Z,98599.55
2018-01-14T20:15:22.435Z,98605.29
2018-01-14T20:17:50.589Z,98599.78
2018-01-14T20:20:18.830Z,98601.42
2018-01-14T20:22:47.142Z,98600.50
2018-01-14T20:25:15.414Z,98601.54
2018-01-14T20:27:43.500Z,98601.13
2018-01-14T20:30:11.580Z,98595.52
2018-01-14T20:32:39.846Z,98597.27
2018-01-14T20:35:08.094Z,98595.94
2018-01-14T20:37:36.184Z,98601.04
2018-01-14T20:40:04.465Z,98599.83
2018-01-14T20:42:32.529Z,98601.05
2018-01-14T20:45:00.604Z,98598.00
2018-01-14T20:47:28.870Z,98602.15
2018-01-14T20:49:56.888Z,98593.80
2018-01-14T20:52:24.815Z,98599.00
2018-01-14T20:54:52.452Z,98596.14
2018-01-14T20:57:20.116Z,98592.30
2018-01-14T20:59:47.978Z,98598.39
2018-01-14T21:02:15.816Z,98594.62
2018-01-14T21:04:43.529Z,98592.98
2018-01-14T21:07:11.293Z,98595.12
2018-01-14T21:09:38.956Z,98590.36
2018-01-14T21:12:06.580Z,98588.01
2018-01-14T21:14:34.379Z,98589.13
2018-01-14T21:17:02.029Z,98583.73
2018-01-14T21:19:29.775Z,98592.89
2018-01-14T21:21:57.745Z,98591.67
2018-01-14T21:24:25.594Z,98596.27
2018-01-14T21:26:53.306Z,98600.11
2018-01-14T21:29:21.051Z,98598.91
2018-01-14T21:31:48.751Z,98595.20
2018-01-14T21:34:16.608Z,98596.63
2018-01-14T21:36:44.275Z,98591.05
2018-01-14T21:39:12.176Z,98596.73
2018-01-14T21:41:39.838Z,98599.48
2018-01-14T21:44:07.465Z,98596.13
2018-01-14T21:46:35.103Z,98595.11
2018-01-14T21:49:02.783Z,98592.44
2018-01-14T21:51:30.456Z,98598.34
2018-01-14T21:53:58.122Z,98596.22
2018-01-14T21:56:25.782Z,98594.92
2018-01-14T21:58:53.505Z,98600.60
2018-01-14T22:01:21.158Z,98594.38
2018-01-14T22:03:48.896Z,98597.45
2018-01-14T22:06:16.553Z,98599.34
2018-01-14T22:08:44.260Z,98609.20
2018-01-14T22:11:11.858Z,98613.95
2018-01-14T22:13:39.536Z,98606.20
2018-01-14T22:16:07.194Z,98606.73
2018-01-14T22:18:34.848Z,98601.80
2018-01-14T22:21:02.475Z,98595.05
2018-01-14T22:23:30.125Z,98594.05
2018-01-14T22:25:57.784Z,98595.47
2018-01-14T22:28:25.420Z,98601.85
2018-01-14T22:30:53.040Z,98599.42
2018-01-14T22:33:20.785Z,98595.77
2018-01-14T22:35:48.430Z,98602.33
2018-01-14T22:38:16.044Z,98592.19
2018-01-14T22:40:43.695Z,98596.47
2018-01-14T22:43:11.350Z,98596.86
2018-01-14T22:45:38.994Z,98591.69
2018-01-14T22:48:06.654Z,98596.66
2018-01-14T22:50:34.431Z,98585.88
2018-01-14T22:53:02.139Z,98578.28
2018-01-14T22:55:29.854Z,98576.64
2018-01-14T22:57:57.767Z,98579.67
2018-01-14T23:00:25.475Z,98582.21
2018-01-14T23:02:53.268Z,98574.16
2018-01-14T23:05:20.994Z,98578.67
2018-01-14T23:07:48.611Z,98570.59
2018-01-14T23:10:16.265Z,98564.36
2018-01-14T23:12:43.944Z,98573.45
2018-01-14T23:15:11.564Z,98571.11
2018-01-14T23:17:39.176Z,98567.61
2018-01-14T23:20:06.805Z,98559.99
2018-01-14T23:22:34.419Z,98556.98
2018-01-14T23:25:02.138Z,98559.95
2018-01-14T23:27:29.763Z,98555.95
2018-01-14T23:29:57.396Z,98556.23
2018-01-14T23:32:25.704Z,98556.61
2018-01-14T23:34:53.359Z,98546.95
2018-01-14T23:37:21.026Z,98551.81
2018-01-14T23:39:48.834Z,98547.53
2018-01-14T23:42:16.506Z,98552.48
2018-01-14T23:44:44.197Z,98545.66
2018-01-14T23:47:11.831Z,98551.09
2018-01-14T23:49:39.538Z,98546.02
2018-01-14T23:52:07.169Z,98544.28
2018-01-14T23:54:34.909Z,98541.34
2018-01-14T23:57:02.571Z,98543.70
2018-01-14T23:59:30.233Z,98539.48
